sensor_id;sensor_type;location;lat;lon;timestamp;pressure;altitude;pressure_sealevel;temperature;humidity
113;BME280;45999;48.808;9.182;2023-05-25T00:00:07;98503.53;;;11.30;70.92
113;BME280;45999;48.808;9.182;2023-05-25T00:02:36;98504.56;;;11.29;70.22
113;BME280;45999;48.808;9.182;2023-05-25T00:05:04;98497.41;;;11.30;70.92
113;BME280;45999;48.808;9.182;2023-05-25T00:07:30;98495.75;;;11.28;70.95
113;BME280;45999;48.808;9.182;2023-05-25T00:09:57;98511.13;;;11.27;71.45
113;BME280;45999;48.808;9.182;2023-05-25T00:12:23;98501.56;;;11.19;71.52
113;BME280;45999;48.808;9.182;2023-05-25T00:14:50;98506.09;;;11.12;72.36
113;BME280;45999;48.808;9.182;2023-05-25T00:17:16;98504.84;;;11.14;72.51
113;BME280;45999;48.808;9.182;2023-05-25T00:19:44;98496.09;;;11.07;73.01
113;BME280;45999;48.808;9.182;2023-05-25T00:22:10;98500.81;;;10.99;72.91
113;BME280;45999;48.808;9.182;2023-05-25T00:24:38;98502.03;;;11.03;74.10
113;BME280;45999;48.808;9.182;2023-05-25T00:27:05;98501.63;;;11.06;73.69
113;BME280;45999;48.808;9.182;2023-05-25T00:29:33;98495.47;;;11.05;73.94
113;BME280;45999;48.808;9.182;2023-05-25T00:32:00;98494.25;;;11.01;73.99
113;BME280;45999;48.808;9.182;2023-05-25T00:34:27;98499.16;;;11.04;72.96
113;BME280;45999;48.808;9.182;2023-05-25T00:36:53;98502.03;;;11.03;73.53
113;BME280;45999;48.808;9.182;2023-05-25T00:39:20;98502.03;;;10.96;72.48
113;BME280;45999;48.808;9.182;2023-05-25T00:41:48;98496.69;;;11.03;73.63
113;BME280;45999;48.808;9.182;2023-05-25T00:44:15;98503.25;;;11.07;73.56
113;BME280;45999;48.808;9.182;2023-05-25T00:46:50;98497.13;;;11.07;73.57
113;BME280;45999;48.808;9.182;2023-05-25T00:49:18;98497.31;;;11.05;73.23
113;BME280;45999;48.808;9.182;2023-05-25T00:51:45;98499.56;;;11.01;73.14
113;BME280;45999;48.808;9.182;2023-05-25T00:54:15;98492.81;;;11.05;72.76
113;BME280;45999;48.808;9.182;2023-05-25T00:56:50;98491.38;;;11.03;72.62
113;BME280;45999;48.808;9.182;2023-05-25T00:59:25;98497.13;;;11.07;74.83
113;BME280;45999;48.808;9.182;2023-05-25T01:01:54;98484.63;;;11.07;73.50
113;BME280;45999;48.808;9.182;2023-05-25T01:04:22;98479.47;;;11.12;72.95
113;BME280;45999;48.808;9.182;2023-05-25T01:06:49;98474.19;;;10.99;73.17
113;BME280;45999;48.808;9.182;2023-05-25T01:09:18;98479.94;;;11.02;74.17
113;BME280;45999;48.808;9.182;2023-05-25T01:11:48;98471.78;;;10.98;74.01
113;BME280;45999;48.808;9.182;2023-05-25T01:14:19;98476.88;;;10.99;74.27
113;BME280;45999;48.808;9.182;2023-05-25T01:16:47;98477.53;;;10.88;75.07
113;BME280;45999;48.808;9.182;2023-05-25T01:19:15;98480.25;;;10.68;75.82
113;BME280;45999;48.808;9.182;2023-05-25T01:22:31;98478.44;;;10.69;76.86
113;BME280;45999;48.808;9.182;2023-05-25T01:25:03;98487.00;;;10.71;77.66
113;BME280;45999;48.808;9.182;2023-05-25T01:27:43;98477.97;;;10.78;75.47
113;BME280;45999;48.808;9.182;2023-05-25T01:30:13;98480.06;;;10.70;78.07
113;BME280;45999;48.808;9.182;2023-05-25T01:32:41;98473.88;;;10.76;77.01
113;BME280;45999;48.808;9.182;2023-05-25T01:35:08;98472.28;;;10.62;78.97
113;BME280;45999;48.808;9.182;2023-05-25T01:37:36;98473.91;;;10.63;77.53
113;BME280;45999;48.808;9.182;2023-05-25T01:40:04;98472.94;;;10.57;77.20
113;BME280;45999;48.808;9.182;2023-05-25T01:42:31;98480.94;;;10.51;79.76
113;BME280;45999;48.808;9.182;2023-05-25T01:44:58;98477.63;;;10.55;77.13
113;BME280;45999;48.808;9.182;2023-05-25T01:47:32;98486.44;;;10.49;78.03
113;BME280;45999;48.808;9.182;2023-05-25T01:50:14;98485.63;;;10.49;77.01
113;BME280;45999;48.808;9.182;2023-05-25T01:53:01;98482.53;;;10.58;76.83
113;BME280;45999;48.808;9.182;2023-05-25T01:55:32;98486.06;;;10.46;77.32
113;BME280;45999;48.808;9.182;2023-05-25T01:58:01;98484.19;;;10.53;77.39
113;BME280;45999;48.808;9.182;2023-05-25T02:00:29;98481.53;;;10.53;77.49
113;BME280;45999;48.808;9.182;2023-05-25T02:02:56;98484.19;;;10.53;77.08
113;BME280;45999;48.808;9.182;2023-05-25T02:05:23;98486.66;;;10.48;77.14
113;BME280;45999;48.808;9.182;2023-05-25T02:07:51;98480.75;;;10.39;77.89
113;BME280;45999;48.808;9.182;2023-05-25T02:10:17;98483.41;;;10.46;76.88
113;BME280;45999;48.808;9.182;2023-05-25T02:12:43;98478.66;;;10.48;77.48
113;BME280;45999;48.808;9.182;2023-05-25T02:15:10;98477.88;;;10.47;77.78
113;BME280;45999;48.808;9.182;2023-05-25T02:17:37;98472.75;;;10.52;78.13
113;BME280;45999;48.808;9.182;2023-05-25T02:20:04;98464.78;;;10.52;77.13
113;BME280;45999;48.808;9.182;2023-05-25T02:22:32;98471.13;;;10.45;78.21
113;BME280;45999;48.808;9.182;2023-05-25T02:24:58;98465.41;;;10.35;79.68
113;BME280;45999;48.808;9.182;2023-05-25T02:27:24;98458.47;;;10.34;77.90
113;BME280;45999;48.808;9.182;2023-05-25T02:29:51;98462.34;;;10.38;78.95
113;BME280;45999;48.808;9.182;2023-05-25T02:32:17;98457.88;;;10.32;78.65
113;BME280;45999;48.808;9.182;2023-05-25T02:34:45;98449.91;;;10.25;80.09
113;BME280;45999;48.808;9.182;2023-05-25T02:37:12;98459.72;;;10.25;80.32
113;BME280;45999;48.808;9.182;2023-05-25T02:39:38;98460.34;;;10.27;80.02
113;BME280;45999;48.808;9.182;2023-05-25T02:42:05;98458.91;;;10.24;80.98
113;BME280;45999;48.808;9.182;2023-05-25T02:44:31;98454.41;;;10.18;81.56
113;BME280;45999;48.808;9.182;2023-05-25T02:46:57;98459.31;;;10.15;83.75
113;BME280;45999;48.808;9.182;2023-05-25T02:49:24;98452.19;;;10.09;82.19
113;BME280;45999;48.808;9.182;2023-05-25T02:51:50;98457.88;;;9.99;82.10
113;BME280;45999;48.808;9.182;2023-05-25T02:54:16;98457.69;;;10.07;83.83
113;BME280;45999;48.808;9.182;2023-05-25T02:56:43;98460.13;;;10.02;85.45
113;BME280;45999;48.808;9.182;2023-05-25T02:59:09;98458.91;;;9.98;86.88
113;BME280;45999;48.808;9.182;2023-05-25T03:01:36;98466.66;;;9.87;86.38
113;BME280;45999;48.808;9.182;2023-05-25T03:04:04;98471.13;;;9.80;85.97
113;BME280;45999;48.808;9.182;2023-05-25T03:06:31;98472.38;;;9.84;84.66
113;BME280;45999;48.808;9.182;2023-05-25T03:08:57;98471.53;;;9.90;86.98
113;BME280;45999;48.808;9.182;2023-05-25T03:11:24;98471.34;;;9.85;86.57
113;BME280;45999;48.808;9.182;2023-05-25T03:13:50;98480.34;;;9.84;87.72
113;BME280;45999;48.808;9.182;2023-05-25T03:16:17;98479.50;;;9.83;88.24
113;BME280;45999;48.808;9.182;2023-05-25T03:18:43;98479.75;;;9.82;85.59
113;BME280;45999;48.808;9.182;2023-05-25T03:21:09;98488.69;;;9.87;85.41
113;BME280;45999;48.808;9.182;2023-05-25T03:23:36;98487.06;;;9.80;86.76
113;BME280;45999;48.808;9.182;2023-05-25T03:26:02;98494.22;;;9.73;84.29
113;BME280;45999;48.808;9.182;2023-05-25T03:28:28;98488.31;;;9.84;85.37
113;BME280;45999;48.808;9.182;2023-05-25T03:30:55;98491.34;;;9.74;86.72
113;BME280;45999;48.808;9.182;2023-05-25T03:33:21;98491.34;;;9.61;86.45
113;BME280;45999;48.808;9.182;2023-05-25T03:35:48;98482.97;;;9.64;86.33
113;BME280;45999;48.808;9.182;2023-05-25T03:38:14;98484.19;;;9.62;87.50
113;BME280;45999;48.808;9.182;2023-05-25T03:40:41;98497.06;;;9.65;86.61
113;BME280;45999;48.808;9.182;2023-05-25T03:43:07;98477.84;;;9.63;86.72
113;BME280;45999;48.808;9.182;2023-05-25T03:45:33;98479.50;;;9.64;86.67
113;BME280;45999;48.808;9.182;2023-05-25T03:48:00;98481.75;;;9.67;87.62
113;BME280;45999;48.808;9.182;2023-05-25T03:50:26;98485.81;;;9.63;87.35
113;BME280;45999;48.808;9.182;2023-05-25T03:52:52;98485.63;;;9.64;87.59
113;BME280;45999;48.808;9.182;2023-05-25T03:55:19;98490.34;;;9.62;86.73
113;BME280;45999;48.808;9.182;2023-05-25T03:57:45;98502.56;;;9.63;88.85
113;BME280;45999;48.808;9.182;2023-05-25T04:00:12;98504.66;;;9.68;86.85
113;BME280;45999;48.808;9.182;2023-05-25T04:02:39;98501.19;;;9.80;86.50
113;BME280;45999;48.808;9.182;2023-05-25T04:05:06;98510.53;;;9.57;87.50
113;BME280;45999;48.808;9.182;2023-05-25T04:07:32;98503.41;;;9.57;88.38
113;BME280;45999;48.808;9.182;2023-05-25T04:10:01;98508.28;;;9.67;88.67
113;BME280;45999;48.808;9.182;2023-05-25T04:12:27;98505.63;;;9.60;89.84
113;BME280;45999;48.808;9.182;2023-05-25T04:14:53;98517.84;;;9.42;89.33
113;BME280;45999;48.808;9.182;2023-05-25T04:17:20;98519.31;;;9.51;90.04
113;BME280;45999;48.808;9.182;2023-05-25T04:19:49;98512.75;;;9.47;89.93
113;BME280;45999;48.808;9.182;2023-05-25T04:22:15;98517.25;;;9.53;90.20
113;BME280;45999;48.808;9.182;2023-05-25T04:24:41;98512.75;;;9.47;89.36
113;BME280;45999;48.808;9.182;2023-05-25T04:27:08;98507.84;;;9.44;90.35
113;BME280;45999;48.808;9.182;2023-05-25T04:29:35;98514.00;;;9.51;91.20
113;BME280;45999;48.808;9.182;2023-05-25T04:32:02;98510.09;;;9.47;90.83
113;BME280;45999;48.808;9.182;2023-05-25T04:34:28;98516.25;;;9.47;90.54
113;BME280;45999;48.808;9.182;2023-05-25T04:36:57;98512.75;;;9.47;93.27
113;BME280;45999;48.808;9.182;2023-05-25T04:39:27;98518.13;;;9.66;90.73
113;BME280;45999;48.808;9.182;2023-05-25T04:41:53;98519.53;;;9.69;90.87
113;BME280;45999;48.808;9.182;2023-05-25T04:44:21;98520.16;;;9.84;89.51
113;BME280;45999;48.808;9.182;2023-05-25T04:46:48;98527.09;;;9.72;90.00
113;BME280;45999;48.808;9.182;2023-05-25T04:49:15;98520.34;;;9.63;91.05
113;BME280;45999;48.808;9.182;2023-05-25T04:51:43;98525.47;;;9.71;91.61
113;BME280;45999;48.808;9.182;2023-05-25T04:54:09;98528.34;;;9.89;91.29
113;BME280;45999;48.808;9.182;2023-05-25T04:56:35;98522.63;;;9.79;90.36
113;BME280;45999;48.808;9.182;2023-05-25T04:59:02;98526.13;;;10.05;90.77
113;BME280;45999;48.808;9.182;2023-05-25T05:01:29;98520.59;;;10.46;87.55
113;BME280;45999;48.808;9.182;2023-05-25T05:03:58;98523.25;;;11.16;85.00
113;BME280;45999;48.808;9.182;2023-05-25T05:06:24;98526.38;;;11.88;81.18
113;BME280;45999;48.808;9.182;2023-05-25T05:08:51;98536.41;;;11.93;75.87
113;BME280;45999;48.808;9.182;2023-05-25T05:11:17;98532.69;;;12.67;73.51
113;BME280;45999;48.808;9.182;2023-05-25T05:13:43;98531.41;;;12.52;71.59
113;BME280;45999;48.808;9.182;2023-05-25T05:16:10;98524.31;;;12.15;73.60
113;BME280;45999;48.808;9.182;2023-05-25T05:18:36;98534.78;;;11.54;75.06
113;BME280;45999;48.808;9.182;2023-05-25T05:21:02;98549.84;;;12.04;75.33
113;BME280;45999;48.808;9.182;2023-05-25T05:23:29;98552.19;;;12.43;73.83
113;BME280;45999;48.808;9.182;2023-05-25T05:25:57;98553.19;;;11.93;76.03
113;BME280;45999;48.808;9.182;2023-05-25T05:28:24;98559.09;;;11.71;77.08
113;BME280;45999;48.808;9.182;2023-05-25T05:30:52;98560.53;;;11.16;80.86
113;BME280;45999;48.808;9.182;2023-05-25T05:33:18;98564.41;;;11.20;81.47
113;BME280;45999;48.808;9.182;2023-05-25T05:35:45;98571.66;;;11.44;81.42
113;BME280;45999;48.808;9.182;2023-05-25T05:38:11;98567.78;;;11.40;77.83
113;BME280;45999;48.808;9.182;2023-05-25T05:40:37;98565.19;;;11.34;81.38
113;BME280;45999;48.808;9.182;2023-05-25T05:43:04;98561.31;;;11.23;79.31
113;BME280;45999;48.808;9.182;2023-05-25T05:45:30;98569.75;;;11.07;79.82
113;BME280;45999;48.808;9.182;2023-05-25T05:47:57;98564.91;;;11.42;79.98
113;BME280;45999;48.808;9.182;2023-05-25T05:50:24;98565.63;;;11.75;80.79
113;BME280;45999;48.808;9.182;2023-05-25T05:52:50;98575.81;;;11.78;78.72
113;BME280;45999;48.808;9.182;2023-05-25T05:55:17;98577.59;;;11.46;79.13
113;BME280;45999;48.808;9.182;2023-05-25T05:57:44;98591.66;;;11.16;79.78
113;BME280;45999;48.808;9.182;2023-05-25T06:00:11;98581.53;;;11.37;80.50
113;BME280;45999;48.808;9.182;2023-05-25T06:02:37;98594.97;;;11.55;78.56
113;BME280;45999;48.808;9.182;2023-05-25T06:05:04;98598.16;;;11.77;78.26
113;BME280;45999;48.808;9.182;2023-05-25T06:07:31;98590.34;;;11.82;79.93
113;BME280;45999;48.808;9.182;2023-05-25T06:10:00;98597.06;;;11.40;79.99
113;BME280;45999;48.808;9.182;2023-05-25T06:12:26;98599.09;;;11.95;80.53
113;BME280;45999;48.808;9.182;2023-05-25T06:14:52;98591.75;;;11.91;79.39
113;BME280;45999;48.808;9.182;2023-05-25T06:17:19;98598.09;;;11.39;79.47
113;BME280;45999;48.808;9.182;2023-05-25T06:19:46;98596.50;;;11.32;81.68
113;BME280;45999;48.808;9.182;2023-05-25T06:22:14;98597.78;;;11.73;80.62
113;BME280;45999;48.808;9.182;2023-05-25T06:24:40;98601.25;;;12.11;79.06
113;BME280;45999;48.808;9.182;2023-05-25T06:27:06;98590.41;;;12.06;80.08
113;BME280;45999;48.808;9.182;2023-05-25T06:29:33;98592.53;;;11.98;78.70
113;BME280;45999;48.808;9.182;2023-05-25T06:31:59;98591.69;;;12.28;78.44
113;BME280;45999;48.808;9.182;2023-05-25T06:34:26;98592.78;;;12.21;78.47
113;BME280;45999;48.808;9.182;2023-05-25T06:36:52;98589.34;;;12.38;77.67
113;BME280;45999;48.808;9.182;2023-05-25T06:39:19;98583.91;;;12.51;79.21
113;BME280;45999;48.808;9.182;2023-05-25T06:41:45;98605.84;;;12.29;77.87
113;BME280;45999;48.808;9.182;2023-05-25T06:44:11;98602.44;;;12.15;77.91
113;BME280;45999;48.808;9.182;2023-05-25T06:46:38;98588.97;;;12.35;79.76
113;BME280;45999;48.808;9.182;2023-05-25T06:49:05;98598.06;;;12.52;80.05
113;BME280;45999;48.808;9.182;2023-05-25T06:51:31;98599.19;;;12.62;78.77
113;BME280;45999;48.808;9.182;2023-05-25T06:53:58;98599.13;;;12.69;79.93
113;BME280;45999;48.808;9.182;2023-05-25T06:56:24;98601.66;;;12.64;79.53
113;BME280;45999;48.808;9.182;2023-05-25T06:58:52;98609.16;;;12.73;78.93
113;BME280;45999;48.808;9.182;2023-05-25T07:01:18;98604.72;;;12.85;80.83
113;BME280;45999;48.808;9.182;2023-05-25T07:03:44;98612.31;;;12.88;80.92
113;BME280;45999;48.808;9.182;2023-05-25T07:06:11;98618.84;;;12.43;80.28
113;BME280;45999;48.808;9.182;2023-05-25T07:08:37;98610.06;;;12.85;79.54
113;BME280;45999;48.808;9.182;2023-05-25T07:11:04;98617.72;;;12.57;79.46
113;BME280;45999;48.808;9.182;2023-05-25T07:13:30;98612.25;;;12.70;79.19
113;BME280;45999;48.808;9.182;2023-05-25T07:15:56;98609.22;;;12.67;79.75
113;BME280;45999;48.808;9.182;2023-05-25T07:18:23;98612.31;;;12.88;81.02
113;BME280;45999;48.808;9.182;2023-05-25T07:20:49;98616.66;;;13.07;79.20
113;BME280;45999;48.808;9.182;2023-05-25T07:23:16;98622.81;;;12.83;78.97
113;BME280;45999;48.808;9.182;2023-05-25T07:25:42;98626.22;;;12.97;79.99
113;BME280;45999;48.808;9.182;2023-05-25T07:28:08;98615.66;;;13.08;80.91
113;BME280;45999;48.808;9.182;2023-05-25T07:30:35;98619.31;;;13.07;79.86
113;BME280;45999;48.808;9.182;2023-05-25T07:33:01;98626.97;;;13.04;81.96
113;BME280;45999;48.808;9.182;2023-05-25T07:35:28;98626.47;;;13.13;81.51
113;BME280;45999;48.808;9.182;2023-05-25T07:38:01;98618.31;;;13.26;82.42
113;BME280;45999;48.808;9.182;2023-05-25T07:40:28;98629.22;;;13.25;79.60
113;BME280;45999;48.808;9.182;2023-05-25T07:42:55;98615.19;;;13.29;80.96
113;BME280;45999;48.808;9.182;2023-05-25T07:45:22;98626.56;;;13.43;80.56
113;BME280;45999;48.808;9.182;2023-05-25T07:47:48;98628.22;;;13.73;80.62
113;BME280;45999;48.808;9.182;2023-05-25T07:50:15;98629.63;;;13.76;78.05
113;BME280;45999;48.808;9.182;2023-05-25T07:52:41;98629.28;;;13.72;79.59
113;BME280;45999;48.808;9.182;2023-05-25T07:55:08;98626.38;;;13.74;79.46
113;BME280;45999;48.808;9.182;2023-05-25T07:57:35;98626.44;;;13.85;80.01
113;BME280;45999;48.808;9.182;2023-05-25T08:00:02;98626.88;;;13.82;79.67
113;BME280;45999;48.808;9.182;2023-05-25T08:02:30;98625.22;;;13.99;80.63
113;BME280;45999;48.808;9.182;2023-05-25T08:04:56;98626.63;;;14.02;77.69
113;BME280;45999;48.808;9.182;2023-05-25T08:07:23;98621.19;;;14.08;76.79
113;BME280;45999;48.808;9.182;2023-05-25T08:09:50;98625.56;;;14.21;78.22
113;BME280;45999;48.808;9.182;2023-05-25T08:12:16;98609.44;;;14.09;76.61
113;BME280;45999;48.808;9.182;2023-05-25T08:14:42;98614.25;;;14.60;79.20
113;BME280;45999;48.808;9.182;2023-05-25T08:17:09;98610.78;;;14.82;77.25
113;BME280;45999;48.808;9.182;2023-05-25T08:19:35;98613.09;;;15.02;74.51
113;BME280;45999;48.808;9.182;2023-05-25T08:22:02;98607.25;;;15.05;76.12
113;BME280;45999;48.808;9.182;2023-05-25T08:24:28;98615.88;;;15.30;76.37
113;BME280;45999;48.808;9.182;2023-05-25T08:26:54;98609.25;;;15.21;74.43
113;BME280;45999;48.808;9.182;2023-05-25T08:29:21;98620.78;;;15.21;74.38
113;BME280;45999;48.808;9.182;2023-05-25T08:31:47;98623.34;;;15.39;74.47
113;BME280;45999;48.808;9.182;2023-05-25T08:34:14;98615.31;;;15.39;73.51
113;BME280;45999;48.808;9.182;2023-05-25T08:36:41;98624.03;;;15.35;74.37
113;BME280;45999;48.808;9.182;2023-05-25T08:39:08;98627.53;;;15.47;72.94
113;BME280;45999;48.808;9.182;2023-05-25T08:41:39;98633.91;;;15.69;75.67
113;BME280;45999;48.808;9.182;2023-05-25T08:44:06;98627.91;;;15.78;76.56
113;BME280;45999;48.808;9.182;2023-05-25T08:46:33;98630.09;;;15.93;72.83
113;BME280;45999;48.808;9.182;2023-05-25T08:49:09;98637.88;;;16.22;69.36
113;BME280;45999;48.808;9.182;2023-05-25T08:51:40;98633.31;;;16.23;70.13
113;BME280;45999;48.808;9.182;2023-05-25T08:54:09;98632.03;;;15.97;70.59
113;BME280;45999;48.808;9.182;2023-05-25T08:56:53;98633.06;;;16.24;70.43
113;BME280;45999;48.808;9.182;2023-05-25T08:59:25;98625.38;;;16.56;69.78
113;BME280;45999;48.808;9.182;2023-05-25T09:02:04;98629.34;;;16.53;70.43
113;BME280;45999;48.808;9.182;2023-05-25T09:04:33;98631.28;;;16.41;70.79
113;BME280;45999;48.808;9.182;2023-05-25T09:07:00;98620.78;;;16.40;69.10
113;BME280;45999;48.808;9.182;2023-05-25T09:09:27;98616.66;;;16.65;71.03
113;BME280;45999;48.808;9.182;2023-05-25T09:11:54;98615.09;;;16.69;69.44
113;BME280;45999;48.808;9.182;2023-05-25T09:14:21;98620.47;;;17.02;71.09
113;BME280;45999;48.808;9.182;2023-05-25T09:16:49;98617.59;;;17.25;68.90
113;BME280;45999;48.808;9.182;2023-05-25T09:19:15;98615.59;;;17.37;69.15
113;BME280;45999;48.808;9.182;2023-05-25T09:21:41;98618.72;;;17.67;66.43
113;BME280;45999;48.808;9.182;2023-05-25T09:24:08;98622.16;;;17.84;68.12
113;BME280;45999;48.808;9.182;2023-05-25T09:26:36;98627.56;;;17.46;65.69
113;BME280;45999;48.808;9.182;2023-05-25T09:29:03;98627.19;;;17.59;66.16
113;BME280;45999;48.808;9.182;2023-05-25T09:31:30;98618.53;;;17.74;63.62
113;BME280;45999;48.808;9.182;2023-05-25T09:33:56;98629.03;;;17.75;65.15
113;BME280;45999;48.808;9.182;2023-05-25T09:36:24;98625.97;;;17.88;67.12
113;BME280;45999;48.808;9.182;2023-05-25T09:38:52;98630.84;;;17.70;64.40
113;BME280;45999;48.808;9.182;2023-05-25T09:41:20;98632.38;;;17.87;65.72
113;BME280;45999;48.808;9.182;2023-05-25T09:43:47;98628.66;;;17.88;63.08
113;BME280;45999;48.808;9.182;2023-05-25T09:46:13;98628.28;;;18.06;63.76
113;BME280;45999;48.808;9.182;2023-05-25T09:48:40;98625.16;;;18.14;64.69
113;BME280;45999;48.808;9.182;2023-05-25T09:51:07;98618.88;;;17.82;63.82
113;BME280;45999;48.808;9.182;2023-05-25T09:53:34;98627.16;;;18.24;64.47
113;BME280;45999;48.808;9.182;2023-05-25T09:56:00;98633.34;;;18.46;62.71
113;BME280;45999;48.808;9.182;2023-05-25T09:58:27;98638.84;;;18.61;62.43
113;BME280;45999;48.808;9.182;2023-05-25T10:00:54;98631.41;;;18.20;62.77
113;BME280;45999;48.808;9.182;2023-05-25T10:03:20;98628.69;;;18.41;62.30
113;BME280;45999;48.808;9.182;2023-05-25T10:05:47;98622.66;;;18.56;62.17
113;BME280;45999;48.808;9.182;2023-05-25T10:08:16;98628.44;;;18.74;63.92
113;BME280;45999;48.808;9.182;2023-05-25T10:10:47;98631.25;;;18.84;62.72
113;BME280;45999;48.808;9.182;2023-05-25T10:13:15;98628.19;;;18.44;62.06
113;BME280;45999;48.808;9.182;2023-05-25T10:15:44;98624.59;;;18.97;62.37
113;BME280;45999;48.808;9.182;2023-05-25T10:18:14;98635.66;;;18.64;61.34
113;BME280;45999;48.808;9.182;2023-05-25T10:20:42;98637.72;;;18.57;62.18
113;BME280;45999;48.808;9.182;2023-05-25T10:23:15;98636.81;;;18.46;63.80
113;BME280;45999;48.808;9.182;2023-05-25T10:25:50;98632.41;;;18.67;63.98
113;BME280;45999;48.808;9.182;2023-05-25T10:28:28;98637.69;;;18.83;61.77
113;BME280;45999;48.808;9.182;2023-05-25T10:30:58;98620.97;;;19.18;63.25
113;BME280;45999;48.808;9.182;2023-05-25T10:33:26;98616.81;;;19.42;60.64
113;BME280;45999;48.808;9.182;2023-05-25T10:35:53;98618.94;;;19.40;60.85
113;BME280;45999;48.808;9.182;2023-05-25T10:38:21;98625.91;;;19.83;60.79
113;BME280;45999;48.808;9.182;2023-05-25T10:40:48;98627.16;;;19.55;59.50
113;BME280;45999;48.808;9.182;2023-05-25T10:43:17;98624.44;;;19.13;62.15
113;BME280;45999;48.808;9.182;2023-05-25T10:45:44;98621.69;;;19.03;61.38
113;BME280;45999;48.808;9.182;2023-05-25T10:48:11;98616.81;;;19.05;62.66
113;BME280;45999;48.808;9.182;2023-05-25T10:50:37;98621.09;;;19.01;60.75
113;BME280;45999;48.808;9.182;2023-05-25T10:53:10;98619.66;;;19.20;62.76
113;BME280;45999;48.808;9.182;2023-05-25T10:55:48;98623.13;;;19.21;61.98
113;BME280;45999;48.808;9.182;2023-05-25T10:58:26;98624.47;;;19.18;60.77
113;BME280;45999;48.808;9.182;2023-05-25T11:06:22;98628.75;;;19.51;59.20
113;BME280;45999;48.808;9.182;2023-05-25T11:09:28;98628.31;;;19.79;60.15
113;BME280;45999;48.808;9.182;2023-05-25T11:14:27;98613.91;;;19.48;61.68
113;BME280;45999;48.808;9.182;2023-05-25T11:17:10;98617.81;;;19.88;59.55
113;BME280;45999;48.808;9.182;2023-05-25T11:19:45;98621.44;;;20.08;59.91
113;BME280;45999;48.808;9.182;2023-05-25T11:22:22;98618.69;;;20.03;57.84
113;BME280;45999;48.808;9.182;2023-05-25T11:24:50;98623.28;;;19.98;61.55
113;BME280;45999;48.808;9.182;2023-05-25T11:27:26;98621.06;;;19.80;58.23
113;BME280;45999;48.808;9.182;2023-05-25T11:29:53;98621.22;;;19.58;59.14
113;BME280;45999;48.808;9.182;2023-05-25T11:32:20;98617.25;;;19.76;57.83
113;BME280;45999;48.808;9.182;2023-05-25T11:34:47;98614.22;;;19.67;59.62
113;BME280;45999;48.808;9.182;2023-05-25T11:37:17;98615.66;;;19.85;58.91
113;BME280;45999;48.808;9.182;2023-05-25T11:39:49;98621.06;;;19.85;57.95
113;BME280;45999;48.808;9.182;2023-05-25T11:42:21;98612.19;;;19.99;57.12
113;BME280;45999;48.808;9.182;2023-05-25T11:44:48;98615.50;;;20.11;57.07
113;BME280;45999;48.808;9.182;2023-05-25T11:47:14;98613.66;;;20.37;55.87
113;BME280;45999;48.808;9.182;2023-05-25T11:49:47;98604.50;;;20.88;56.21
113;BME280;45999;48.808;9.182;2023-05-25T11:52:16;98602.91;;;20.57;54.29
113;BME280;45999;48.808;9.182;2023-05-25T11:54:44;98594.78;;;20.87;55.17
113;BME280;45999;48.808;9.182;2023-05-25T11:57:22;98606.13;;;21.04;54.94
113;BME280;45999;48.808;9.182;2023-05-25T11:59:54;98596.94;;;21.00;59.93
113;BME280;45999;48.808;9.182;2023-05-25T12:02:23;98607.75;;;20.90;55.18
113;BME280;45999;48.808;9.182;2023-05-25T12:04:54;98609.34;;;20.46;58.39
113;BME280;45999;48.808;9.182;2023-05-25T12:07:21;98609.88;;;20.23;55.72
113;BME280;45999;48.808;9.182;2023-05-25T12:09:47;98620.66;;;20.23;56.91
113;BME280;45999;48.808;9.182;2023-05-25T12:12:14;98605.03;;;20.40;54.96
113;BME280;45999;48.808;9.182;2023-05-25T12:14:50;98605.56;;;20.37;55.51
113;BME280;45999;48.808;9.182;2023-05-25T12:17:18;98606.31;;;20.12;55.56
113;BME280;45999;48.808;9.182;2023-05-25T12:19:46;98596.38;;;20.28;55.99
113;BME280;45999;48.808;9.182;2023-05-25T12:22:13;98596.81;;;20.05;56.82
113;BME280;45999;48.808;9.182;2023-05-25T12:24:40;98603.94;;;20.51;55.36
113;BME280;45999;48.808;9.182;2023-05-25T12:27:19;98599.13;;;20.48;54.65
113;BME280;45999;48.808;9.182;2023-05-25T12:29:47;98608.00;;;20.58;55.13
113;BME280;45999;48.808;9.182;2023-05-25T12:32:14;98606.38;;;20.57;55.21
113;BME280;45999;48.808;9.182;2023-05-25T12:34:41;98601.53;;;20.69;55.48
113;BME280;45999;48.808;9.182;2023-05-25T12:37:20;98594.25;;;20.70;52.89
113;BME280;45999;48.808;9.182;2023-05-25T12:39:47;98599.94;;;20.63;54.38
113;BME280;45999;48.808;9.182;2023-05-25T12:42:15;98595.34;;;20.79;54.17
113;BME280;45999;48.808;9.182;2023-05-25T12:44:43;98603.41;;;20.69;56.20
113;BME280;45999;48.808;9.182;2023-05-25T12:49:41;98606.94;;;20.59;55.21
113;BME280;45999;48.808;9.182;2023-05-25T12:52:09;98605.31;;;20.43;53.49
113;BME280;45999;48.808;9.182;2023-05-25T12:54:43;98609.91;;;20.53;53.80
113;BME280;45999;48.808;9.182;2023-05-25T12:57:14;98604.78;;;20.46;54.45
113;BME280;45999;48.808;9.182;2023-05-25T12:59:45;98608.81;;;20.69;56.06
113;BME280;45999;48.808;9.182;2023-05-25T13:02:13;98602.91;;;20.62;53.51
113;BME280;45999;48.808;9.182;2023-05-25T13:04:40;98609.09;;;20.52;54.15
113;BME280;45999;48.808;9.182;2023-05-25T13:07:07;98588.84;;;20.75;54.90
113;BME280;45999;48.808;9.182;2023-05-25T13:09:34;98597.22;;;20.68;54.60
113;BME280;45999;48.808;9.182;2023-05-25T13:12:00;98596.13;;;20.89;55.73
113;BME280;45999;48.808;9.182;2023-05-25T13:14:28;98591.81;;;20.78;53.21
113;BME280;45999;48.808;9.182;2023-05-25T13:16:55;98593.41;;;21.19;56.22
113;BME280;45999;48.808;9.182;2023-05-25T13:19:23;98582.03;;;21.32;52.17
113;BME280;45999;48.808;9.182;2023-05-25T13:21:50;98588.81;;;21.15;52.61
113;BME280;45999;48.808;9.182;2023-05-25T13:24:20;98586.06;;;21.40;52.19
113;BME280;45999;48.808;9.182;2023-05-25T13:26:47;98584.75;;;21.12;53.35
113;BME280;45999;48.808;9.182;2023-05-25T13:29:14;98580.72;;;21.20;54.34
113;BME280;45999;48.808;9.182;2023-05-25T13:31:41;98587.97;;;21.29;53.34
113;BME280;45999;48.808;9.182;2023-05-25T13:34:07;98574.16;;;21.36;51.56
113;BME280;45999;48.808;9.182;2023-05-25T13:36:34;98571.97;;;21.48;52.41
113;BME280;45999;48.808;9.182;2023-05-25T13:39:01;98580.94;;;21.33;51.80